Ghent, New York
Current Conditions -  °F | °C
As of 11:54 PM on Friday 24 Oct 2014 (Local Time) from KPSF Reporting Station
Clear Clear  
Wind Chill: 38°   Ceiling: Unl
Heat Index: 43°   Visibility: 10mi
Dew Point: 41°   Wind: 9mph
Humidity: 93%   Direction: 280°W
Pressure: 29.82"   Gusts: NA
Location:  42.33°N, 73.62°W
Report Text: KPSF 250354Z AUTO 28008KT 10SM CLR 06/05 A2982 RMK AO2 SLP096 T00610050
Loading
Personal Weather Stations






























Interactive Weather Map
Tropical Storm Tracking
New forecast layout! Learn more

10-Day Weather Forecast

Advertisements
Track Severe Weather on mobile